Time;durP1;ratioP1;P1;durP2;ratioP2;P2;SDS_P1;SDS_P2;PMS_P1;PMS_P2;Temp;Humidity;BMP_temperature;BMP_pressure;BME280_temperature;BME280_humidity;BME280_pressure;Samples;Min_cycle;Max_cycle;Signal;HPM_P1;HPM_P2
2022/05/22 00:01:26;;;;;;;;;;;21.20;99.90;;;;;;5051538;28;20425;-74
2022/05/22 00:03:52;;;;;;;;;;;21.20;99.90;;;;;;5062099;28;19916;-72
2022/05/22 00:06:17;;;;;;;;;;;21.20;99.90;;;;;;5052730;28;20305;-73
2022/05/22 00:08:43;;;;;;;;;;;21.20;99.90;;;;;;5056080;28;19931;-73
2022/05/22 00:11:08;;;;;;;;;;;21.20;99.90;;;;;;5059143;28;19924;-73
2022/05/22 00:13:34;;;;;;;;;;;21.20;99.90;;;;;;5046241;28;20394;-72
2022/05/22 00:18:44;;;;;;;;;;;21.10;99.90;;;;;;5050669;28;20042;-73
2022/05/22 00:21:10;;;;;;;;;;;21.10;99.90;;;;;;5038731;28;19975;-73
2022/05/22 00:23:35;;;;;;;;;;;21.10;99.90;;;;;;5052128;28;19966;-72
2022/05/22 00:26:01;;;;;;;;;;;21.10;99.90;;;;;;5053025;28;19919;-74
2022/05/22 00:28:26;;;;;;;;;;;21.20;99.90;;;;;;5047194;28;19948;-74
2022/05/22 00:30:52;;;;;;;;;;;21.20;99.90;;;;;;5050814;28;19992;-73
2022/05/22 00:33:17;;;;;;;;;;;21.20;99.90;;;;;;5045519;28;19921;-76
2022/05/22 00:35:43;;;;;;;;;;;21.10;99.90;;;;;;5047389;28;20003;-74
2022/05/22 00:38:08;;;;;;;;;;;21.10;99.90;;;;;;5049475;28;19912;-73
2022/05/22 00:40:34;;;;;;;;;;;21.10;99.90;;;;;;5062973;28;20374;-74
2022/05/22 00:43:01;;;;;;;;;;;21.10;99.90;;;;;;5046526;28;19913;-73
2022/05/22 00:45:26;;;;;;;;;;;21.10;99.90;;;;;;5049667;28;20388;-73
2022/05/22 00:47:53;;;;;;;;;;;21.00;99.90;;;;;;5030516;28;19968;-73
2022/05/22 00:50:19;;;;;;;;;;;21.00;99.90;;;;;;5066530;28;19951;-73
2022/05/22 00:52:53;;;;;;;;;;;21.00;99.90;;;;;;5059078;28;20358;-73
2022/05/22 00:55:24;;;;;;;;;;;20.90;99.90;;;;;;5055947;28;20297;-73
2022/05/22 00:57:57;;;;;;;;;;;20.90;99.90;;;;;;5061163;28;20320;-71
2022/05/22 01:00:25;;;;;;;;;;;20.90;99.90;;;;;;5053058;28;19928;-74
2022/05/22 01:05:38;;;;;;;;;;;20.90;99.90;;;;;;5054889;28;19971;-72
2022/05/22 01:08:04;;;;;;;;;;;20.90;99.90;;;;;;5051062;28;19912;-73
2022/05/22 01:10:33;;;;;;;;;;;20.80;99.90;;;;;;5063202;28;19994;-73
2022/05/22 01:12:59;;;;;;;;;;;20.80;99.90;;;;;;5051594;28;19992;-72
2022/05/22 01:15:24;;;;;;;;;;;20.90;99.90;;;;;;5058084;28;19916;-73
2022/05/22 01:17:50;;;;;;;;;;;20.80;99.90;;;;;;5042233;28;20416;-72
2022/05/22 01:20:16;;;;;;;;;;;20.80;99.90;;;;;;5039540;28;19919;-73
2022/05/22 01:22:41;;;;;;;;;;;20.90;99.90;;;;;;5059583;28;19988;-75
2022/05/22 01:25:09;;;;;;;;;;;20.90;99.90;;;;;;5050713;28;20026;-73
2022/05/22 01:27:34;;;;;;;;;;;20.80;99.90;;;;;;5053912;28;20384;-74
2022/05/22 01:30:10;;;;;;;;;;;20.80;99.90;;;;;;5059501;28;20000;-73
2022/05/22 01:32:36;;;;;;;;;;;20.80;99.90;;;;;;5060247;28;20107;-72
2022/05/22 01:35:02;;;;;;;;;;;20.70;99.90;;;;;;5057197;28;19913;-73
2022/05/22 01:37:28;;;;;;;;;;;20.60;99.90;;;;;;5055331;28;20300;-74
2022/05/22 01:39:53;;;;;;;;;;;20.60;99.90;;;;;;5061333;28;19912;-72
2022/05/22 01:42:19;;;;;;;;;;;20.60;99.90;;;;;;5054249;28;19913;-73
2022/05/22 01:44:45;;;;;;;;;;;20.60;99.90;;;;;;5059852;28;19917;-74
2022/05/22 01:47:10;;;;;;;;;;;20.70;99.90;;;;;;5048752;28;19955;-74
2022/05/22 01:49:36;;;;;;;;;;;20.60;99.90;;;;;;5048020;28;19912;-72
2022/05/22 01:52:02;;;;;;;;;;;20.70;99.90;;;;;;5049662;28;20374;-73
2022/05/22 01:54:27;;;;;;;;;;;20.60;99.90;;;;;;5053050;28;19974;-72
2022/05/22 01:56:53;;;;;;;;;;;20.60;99.90;;;;;;5031159;28;19924;-72
2022/05/22 01:59:18;;;;;;;;;;;20.60;99.90;;;;;;5053899;28;19925;-74
2022/05/22 02:01:45;;;;;;;;;;;20.60;99.90;;;;;;5049549;28;19913;-72
2022/05/22 02:04:10;;;;;;;;;;;20.60;99.90;;;;;;5052596;28;19994;-72
2022/05/22 02:08:19;;;;;;;;;;;20.50;99.90;;;;;;5052123;28;19996;-76
2022/05/22 02:09:22;;;;;;;;;;;20.40;99.90;;;;;;5057588;28;19912;-74
2022/05/22 02:11:47;;;;;;;;;;;20.40;99.90;;;;;;5066305;28;20042;-73
2022/05/22 02:14:14;;;;;;;;;;;20.40;99.90;;;;;;5055894;28;19917;-74
2022/05/22 02:16:39;;;;;;;;;;;20.40;99.90;;;;;;5048435;28;19920;-73
2022/05/22 02:19:05;;;;;;;;;;;20.50;99.90;;;;;;5049030;28;19917;-73
2022/05/22 02:21:32;;;;;;;;;;;20.40;99.90;;;;;;5048113;28;20275;-73
2022/05/22 02:23:57;;;;;;;;;;;20.30;99.90;;;;;;5048942;28;19964;-74
2022/05/22 02:26:23;;;;;;;;;;;20.30;99.90;;;;;;5049187;28;19949;-73
2022/05/22 02:28:48;;;;;;;;;;;20.30;99.90;;;;;;5047720;28;19913;-72
2022/05/22 02:31:14;;;;;;;;;;;20.30;99.90;;;;;;5048581;28;19966;-74
2022/05/22 02:33:40;;;;;;;;;;;20.40;99.90;;;;;;5051048;28;20371;-73
2022/05/22 02:36:06;;;;;;;;;;;20.40;99.90;;;;;;5044864;28;20337;-73
2022/05/22 02:38:32;;;;;;;;;;;20.40;99.90;;;;;;5047323;28;19947;-73
2022/05/22 02:40:58;;;;;;;;;;;20.40;99.90;;;;;;5044265;28;19921;-72
2022/05/22 02:43:24;;;;;;;;;;;20.40;99.90;;;;;;5032982;28;20401;-74
2022/05/22 02:45:51;;;;;;;;;;;20.40;99.90;;;;;;5048296;28;19925;-74
2022/05/22 02:48:16;;;;;;;;;;;20.30;99.90;;;;;;5046711;28;19920;-72
2022/05/22 02:50:44;;;;;;;;;;;20.30;99.90;;;;;;5043659;28;20305;-73
2022/05/22 02:53:10;;;;;;;;;;;20.20;99.90;;;;;;5053109;28;19913;-75
2022/05/22 02:55:35;;;;;;;;;;;20.20;99.90;;;;;;5031185;28;19923;-72
2022/05/22 02:58:01;;;;;;;;;;;20.20;99.90;;;;;;5051721;28;19928;-73
2022/05/22 03:00:30;;;;;;;;;;;20.20;99.90;;;;;;5060287;28;19960;-72
2022/05/22 03:02:56;;;;;;;;;;;20.20;99.90;;;;;;5051168;28;19959;-73
2022/05/22 03:05:22;;;;;;;;;;;20.20;99.90;;;;;;5051658;28;19970;-72
2022/05/22 03:07:48;;;;;;;;;;;20.20;99.90;;;;;;5050591;28;19917;-73
2022/05/22 03:10:14;;;;;;;;;;;20.30;99.90;;;;;;5053839;28;19917;-74
2022/05/22 03:12:39;;;;;;;;;;;20.20;99.90;;;;;;5053044;28;20377;-74
2022/05/22 03:15:07;;;;;;;;;;;20.20;99.90;;;;;;5050422;28;19922;-74
2022/05/22 03:17:32;;;;;;;;;;;20.20;99.90;;;;;;5046960;28;19921;-76
2022/05/22 03:19:58;;;;;;;;;;;20.20;99.90;;;;;;5050221;28;19913;-74
2022/05/22 03:22:24;;;;;;;;;;;20.10;99.90;;;;;;5052529;28;19958;-73
2022/05/22 03:24:50;;;;;;;;;;;20.10;99.90;;;;;;5058854;28;19962;-73
2022/05/22 03:27:17;;;;;;;;;;;20.20;99.90;;;;;;5055126;28;19916;-74
2022/05/22 03:29:44;;;;;;;;;;;20.20;99.90;;;;;;5058987;28;19916;-74
2022/05/22 03:32:09;;;;;;;;;;;20.20;99.90;;;;;;5051994;28;19963;-75
2022/05/22 03:34:35;;;;;;;;;;;20.20;99.90;;;;;;5050034;28;19959;-73
2022/05/22 03:37:00;;;;;;;;;;;20.10;99.90;;;;;;5051887;28;20375;-74
2022/05/22 03:39:26;;;;;;;;;;;20.20;99.90;;;;;;5050916;28;19913;-75
2022/05/22 03:41:52;;;;;;;;;;;20.20;99.90;;;;;;5049896;28;20478;-73
2022/05/22 03:44:18;;;;;;;;;;;20.10;99.90;;;;;;5047598;28;19951;-74
2022/05/22 03:46:44;;;;;;;;;;;20.20;99.90;;;;;;5050608;28;19913;-74
2022/05/22 03:49:10;;;;;;;;;;;20.20;99.90;;;;;;5037909;28;19934;-75
2022/05/22 03:51:35;;;;;;;;;;;20.20;99.90;;;;;;5060697;28;19988;-72
2022/05/22 03:54:01;;;;;;;;;;;20.10;99.90;;;;;;5053047;28;19944;-75
2022/05/22 03:56:27;;;;;;;;;;;20.10;99.90;;;;;;5059371;28;20305;-73
2022/05/22 03:58:52;;;;;;;;;;;20.10;99.90;;;;;;5049978;28;19925;-73
2022/05/22 04:01:18;;;;;;;;;;;20.10;99.90;;;;;;5049477;28;19916;-73
2022/05/22 04:03:43;;;;;;;;;;;20.00;99.90;;;;;;5050740;28;19920;-72
2022/05/22 04:06:10;;;;;;;;;;;20.00;99.90;;;;;;5044881;28;19959;-73
2022/05/22 04:08:36;;;;;;;;;;;20.10;99.90;;;;;;5049647;28;19913;-74
2022/05/22 04:11:09;;;;;;;;;;;20.00;99.90;;;;;;5055836;28;19970;-73
2022/05/22 04:13:35;;;;;;;;;;;20.00;99.90;;;;;;5050416;28;19919;-73
2022/05/22 04:16:00;;;;;;;;;;;20.00;99.90;;;;;;5047866;28;19921;-76
2022/05/22 04:18:26;;;;;;;;;;;20.00;99.90;;;;;;5033593;28;19913;-73
2022/05/22 04:20:51;;;;;;;;;;;20.20;99.90;;;;;;5054335;28;21389;-73
2022/05/22 04:26:01;;;;;;;;;;;20.20;99.90;;;;;;5050590;28;19995;-73
2022/05/22 04:28:28;;;;;;;;;;;20.20;99.90;;;;;;5049694;28;19921;-74
2022/05/22 04:30:55;;;;;;;;;;;20.30;99.90;;;;;;5052543;28;20419;-73
2022/05/22 04:33:20;;;;;;;;;;;20.40;99.90;;;;;;5053000;28;19955;-75
2022/05/22 04:35:47;;;;;;;;;;;20.50;99.90;;;;;;5049656;28;19913;-73
2022/05/22 04:38:13;;;;;;;;;;;20.60;99.90;;;;;;5058486;28;19976;-73
2022/05/22 04:40:39;;;;;;;;;;;20.70;99.90;;;;;;5050028;28;19932;-73
2022/05/22 04:43:05;;;;;;;;;;;20.70;99.90;;;;;;5048703;28;19923;-74
2022/05/22 04:45:31;;;;;;;;;;;20.80;99.90;;;;;;5051192;28;20374;-71
2022/05/22 04:47:56;;;;;;;;;;;20.90;99.90;;;;;;5048330;28;19999;-72
2022/05/22 04:50:22;;;;;;;;;;;21.00;99.90;;;;;;5041625;28;20327;-73
2022/05/22 04:52:48;;;;;;;;;;;21.20;99.90;;;;;;5046756;28;19913;-73
2022/05/22 04:55:13;;;;;;;;;;;21.30;99.90;;;;;;5049336;28;20007;-73
2022/05/22 04:57:39;;;;;;;;;;;21.30;99.90;;;;;;5061425;28;20253;-71
2022/05/22 05:00:06;;;;;;;;;;;21.30;99.90;;;;;;5035286;28;19927;-74
2022/05/22 05:02:31;;;;;;;;;;;21.30;99.90;;;;;;5047908;28;19927;-73
2022/05/22 05:04:57;;;;;;;;;;;21.30;99.90;;;;;;5049795;28;19917;-73
2022/05/22 05:07:26;;;;;;;;;;;21.50;99.90;;;;;;5049117;28;19983;-73
2022/05/22 05:09:52;;;;;;;;;;;21.60;99.90;;;;;;5047623;28;19948;-72
2022/05/22 05:12:17;;;;;;;;;;;21.90;99.90;;;;;;5028377;28;19947;-74
2022/05/22 05:14:43;;;;;;;;;;;22.00;99.90;;;;;;5030841;28;19912;-74
2022/05/22 05:17:13;;;;;;;;;;;22.30;99.90;;;;;;5047984;28;19912;-73
2022/05/22 05:19:39;;;;;;;;;;;22.40;99.90;;;;;;5047808;28;20046;-73
2022/05/22 05:22:04;;;;;;;;;;;22.50;99.90;;;;;;5053078;28;20349;-73
2022/05/22 05:24:30;;;;;;;;;;;22.60;99.90;;;;;;5049238;28;19916;-73
2022/05/22 05:26:56;;;;;;;;;;;22.80;99.90;;;;;;5046962;28;19966;-72
2022/05/22 05:29:22;;;;;;;;;;;22.80;99.90;;;;;;5052402;28;19912;-73
2022/05/22 05:31:47;;;;;;;;;;;23.00;99.90;;;;;;5047766;28;19912;-73
2022/05/22 05:34:13;;;;;;;;;;;23.10;99.90;;;;;;5047647;28;19970;-74
2022/05/22 05:36:39;;;;;;;;;;;23.20;99.90;;;;;;5047012;28;19913;-74
2022/05/22 05:39:05;;;;;;;;;;;23.30;99.90;;;;;;5048423;28;19931;-73
2022/05/22 05:41:30;;;;;;;;;;;23.40;99.90;;;;;;5045249;28;19947;-74
2022/05/22 05:43:56;;;;;;;;;;;23.60;99.90;;;;;;5031102;28;19917;-73
2022/05/22 05:46:21;;;;;;;;;;;23.70;99.90;;;;;;5056879;28;19909;-71
2022/05/22 05:48:47;;;;;;;;;;;23.80;99.90;;;;;;5059094;28;20353;-76
2022/05/22 05:51:13;;;;;;;;;;;23.90;99.90;;;;;;5063059;28;19909;-73
2022/05/22 05:53:39;;;;;;;;;;;23.90;99.90;;;;;;5044259;28;19919;-75
2022/05/22 05:56:05;;;;;;;;;;;24.00;99.90;;;;;;5042621;28;20401;-75
2022/05/22 05:58:31;;;;;;;;;;;24.00;99.90;;;;;;5043391;28;20351;-75
2022/05/22 06:00:56;;;;;;;;;;;24.00;99.90;;;;;;5030739;28;20002;-76
2022/05/22 06:03:22;;;;;;;;;;;24.10;99.90;;;;;;5048095;28;20316;-75
2022/05/22 06:05:48;;;;;;;;;;;24.10;99.90;;;;;;5053426;28;20290;-75
2022/05/22 06:08:14;;;;;;;;;;;24.20;99.90;;;;;;5042708;28;19917;-75
2022/05/22 06:10:39;;;;;;;;;;;24.20;99.90;;;;;;5059857;28;19939;-74
2022/05/22 06:13:05;;;;;;;;;;;24.20;99.90;;;;;;5064598;28;19913;-74
2022/05/22 06:15:30;;;;;;;;;;;24.30;99.90;;;;;;5057517;28;19920;-75
2022/05/22 06:17:58;;;;;;;;;;;24.40;99.90;;;;;;5055951;28;19917;-74
2022/05/22 06:20:23;;;;;;;;;;;24.60;99.90;;;;;;5032110;28;19924;-75
2022/05/22 06:22:49;;;;;;;;;;;24.80;99.90;;;;;;5048511;28;19912;-75
2022/05/22 06:25:15;;;;;;;;;;;24.80;99.90;;;;;;5048139;28;19921;-75
2022/05/22 06:27:43;;;;;;;;;;;25.10;99.90;;;;;;5047083;28;20020;-75
2022/05/22 06:30:12;;;;;;;;;;;25.20;99.90;;;;;;5047701;28;19912;-75
2022/05/22 06:32:39;;;;;;;;;;;25.40;99.90;;;;;;5059784;28;19921;-75
2022/05/22 06:35:05;;;;;;;;;;;25.50;99.90;;;;;;5050149;28;19920;-75
2022/05/22 06:37:30;;;;;;;;;;;25.30;99.90;;;;;;5050768;28;19912;-74
2022/05/22 06:39:56;;;;;;;;;;;25.00;99.90;;;;;;5053701;28;19928;-75
2022/05/22 06:42:34;;;;;;;;;;;24.80;99.90;;;;;;5048150;28;20259;-76
2022/05/22 06:45:07;;;;;;;;;;;25.00;99.90;;;;;;5046956;28;20326;-74
2022/05/22 06:47:34;;;;;;;;;;;25.30;99.90;;;;;;5033554;28;19978;-75
2022/05/22 06:50:04;;;;;;;;;;;25.40;99.90;;;;;;5050529;28;20328;-74
2022/05/22 06:52:30;;;;;;;;;;;25.50;99.90;;;;;;5051576;28;20282;-74
2022/05/22 06:54:55;;;;;;;;;;;25.20;99.90;;;;;;5033460;28;19920;-74
2022/05/22 06:57:21;;;;;;;;;;;25.20;99.90;;;;;;5047214;28;19928;-74
2022/05/22 06:59:47;;;;;;;;;;;25.30;99.90;;;;;;5043571;28;19920;-74
2022/05/22 07:02:13;;;;;;;;;;;25.30;99.90;;;;;;5052320;28;20032;-75
2022/05/22 07:04:39;;;;;;;;;;;25.50;99.90;;;;;;5031921;28;19938;-74
2022/05/22 07:07:05;;;;;;;;;;;25.70;99.90;;;;;;5049651;28;20397;-74
2022/05/22 07:09:30;;;;;;;;;;;25.90;99.90;;;;;;5050519;28;19912;-73
2022/05/22 07:11:59;;;;;;;;;;;26.20;99.90;;;;;;5030739;28;19999;-73
2022/05/22 07:14:26;;;;;;;;;;;26.40;99.90;;;;;;5052400;28;20016;-73
2022/05/22 07:16:51;;;;;;;;;;;26.40;99.90;;;;;;5051586;28;19913;-74
2022/05/22 07:19:18;;;;;;;;;;;26.40;99.90;;;;;;5033656;28;20003;-74
2022/05/22 07:21:43;;;;;;;;;;;26.30;99.90;;;;;;5050474;28;20013;-75
2022/05/22 07:24:09;;;;;;;;;;;26.10;99.90;;;;;;5049781;28;19931;-74
2022/05/22 07:26:35;;;;;;;;;;;25.90;99.90;;;;;;5050529;28;20430;-74
2022/05/22 07:29:01;;;;;;;;;;;25.90;99.90;;;;;;5049927;28;19947;-75
2022/05/22 07:31:27;;;;;;;;;;;25.80;99.90;;;;;;5032938;28;20382;-75
2022/05/22 07:33:53;;;;;;;;;;;25.80;99.90;;;;;;5050508;28;19925;-74
2022/05/22 07:36:19;;;;;;;;;;;25.80;99.90;;;;;;5063829;28;19958;-74
2022/05/22 07:38:47;;;;;;;;;;;25.80;99.90;;;;;;5060152;28;20284;-74
2022/05/22 07:41:13;;;;;;;;;;;25.80;99.90;;;;;;5053336;28;19908;-75
2022/05/22 07:43:39;;;;;;;;;;;25.90;99.90;;;;;;5052278;28;20335;-62
2022/05/22 07:46:06;;;;;;;;;;;25.90;99.90;;;;;;5044221;28;19920;-64
2022/05/22 07:48:32;;;;;;;;;;;25.70;99.90;;;;;;5049941;28;19920;-65
2022/05/22 07:50:59;;;;;;;;;;;25.60;99.90;;;;;;5039553;28;20290;-65
2022/05/22 07:53:25;;;;;;;;;;;25.60;99.90;;;;;;5038972;28;20469;-65
2022/05/22 07:55:51;;;;;;;;;;;25.60;99.90;;;;;;5052507;28;20403;-64
2022/05/22 07:58:17;;;;;;;;;;;25.70;99.90;;;;;;5052005;28;19974;-65
2022/05/22 08:00:43;;;;;;;;;;;25.70;99.90;;;;;;5052626;28;19995;-62
2022/05/22 08:03:09;;;;;;;;;;;25.80;99.90;;;;;;5057040;28;19936;-65
2022/05/22 08:05:35;;;;;;;;;;;25.60;99.90;;;;;;5054938;28;19928;-63
2022/05/22 08:08:00;;;;;;;;;;;25.60;99.90;;;;;;5051739;28;19980;-63
2022/05/22 08:10:26;;;;;;;;;;;25.60;99.90;;;;;;5055295;28;20298;-62
2022/05/22 08:12:52;;;;;;;;;;;25.70;99.90;;;;;;5054703;28;19956;-62
2022/05/22 08:15:19;;;;;;;;;;;25.70;99.90;;;;;;5052692;28;19913;-64
2022/05/22 08:17:46;;;;;;;;;;;25.70;99.90;;;;;;5053068;28;19913;-62
2022/05/22 08:20:15;;;;;;;;;;;25.70;99.90;;;;;;5049701;28;20354;-63
2022/05/22 08:22:44;;;;;;;;;;;25.70;99.90;;;;;;5048007;28;19966;-64
2022/05/22 08:25:11;;;;;;;;;;;25.90;99.90;;;;;;5055712;28;19924;-63
2022/05/22 08:27:36;;;;;;;;;;;25.90;99.90;;;;;;5050537;28;19917;-65
2022/05/22 08:30:02;;;;;;;;;;;25.90;99.90;;;;;;5055395;28;19919;-62
2022/05/22 08:32:28;;;;;;;;;;;26.00;99.90;;;;;;5050917;28;20399;-62
2022/05/22 08:34:54;;;;;;;;;;;26.00;99.90;;;;;;5050259;28;19927;-63
2022/05/22 08:37:19;;;;;;;;;;;26.00;99.90;;;;;;5051540;28;19960;-61
2022/05/22 08:39:45;;;;;;;;;;;26.10;99.90;;;;;;5048506;28;19912;-62
2022/05/22 08:42:23;;;;;;;;;;;26.10;99.90;;;;;;5056719;28;20416;-63
2022/05/22 08:44:51;;;;;;;;;;;26.10;99.90;;;;;;5049241;28;19924;-62
2022/05/22 08:47:16;;;;;;;;;;;26.20;99.90;;;;;;5048316;28;19927;-62
2022/05/22 08:49:42;;;;;;;;;;;26.20;99.90;;;;;;5049564;28;19913;-62
2022/05/22 08:52:25;;;;;;;;;;;26.30;99.90;;;;;;5052014;28;19909;-62
2022/05/22 08:54:54;;;;;;;;;;;26.30;99.90;;;;;;5048582;28;19920;-61
2022/05/22 09:00:06;;;;;;;;;;;26.30;99.90;;;;;;5041999;28;19928;-61
2022/05/22 09:02:34;;;;;;;;;;;26.40;99.90;;;;;;5041501;28;20008;-63
2022/05/22 09:05:07;;;;;;;;;;;26.50;99.90;;;;;;5046453;28;19916;-63
2022/05/22 09:07:52;;;;;;;;;;;26.60;99.90;;;;;;5048198;28;20422;-62
2022/05/22 09:10:25;;;;;;;;;;;26.70;99.90;;;;;;5050902;28;19999;-63
2022/05/22 09:13:09;;;;;;;;;;;26.60;99.90;;;;;;5051416;28;19913;-64
2022/05/22 09:15:40;;;;;;;;;;;26.70;99.90;;;;;;5048082;28;20243;-63
2022/05/22 09:18:16;;;;;;;;;;;26.80;99.90;;;;;;5049372;28;19913;-63
2022/05/22 09:20:52;;;;;;;;;;;26.90;99.90;;;;;;5049630;28;20023;-61
2022/05/22 09:23:29;;;;;;;;;;;27.00;99.90;;;;;;5046883;28;19913;-63
2022/05/22 09:26:10;;;;;;;;;;;27.10;99.90;;;;;;5049978;28;19982;-63
2022/05/22 09:28:51;;;;;;;;;;;27.20;99.90;;;;;;5049997;28;19991;-62
2022/05/22 09:31:37;;;;;;;;;;;27.20;99.90;;;;;;5048430;28;19928;-63
2022/05/22 09:34:20;;;;;;;;;;;27.10;99.90;;;;;;5045826;28;19928;-62
2022/05/22 09:36:52;;;;;;;;;;;27.50;99.90;;;;;;5049231;28;19912;-61
2022/05/22 09:39:34;;;;;;;;;;;27.50;99.90;;;;;;5052274;28;19917;-63
2022/05/22 09:42:06;;;;;;;;;;;27.60;99.90;;;;;;5050602;28;19920;-62
2022/05/22 09:44:51;;;;;;;;;;;27.70;99.90;;;;;;5055339;28;19917;-64
2022/05/22 09:47:22;;;;;;;;;;;27.50;99.90;;;;;;5062183;28;19909;-61
2022/05/22 09:49:48;;;;;;;;;;;27.40;99.90;;;;;;5047016;28;19940;-65
2022/05/22 09:52:18;;;;;;;;;;;27.30;99.90;;;;;;5047875;28;19936;-63
2022/05/22 09:55:02;;;;;;;;;;;27.40;99.90;;;;;;5050831;28;19916;-62
2022/05/22 09:57:30;;;;;;;;;;;27.70;99.90;;;;;;5049538;28;19940;-61
2022/05/22 10:00:15;;;;;;;;;;;27.90;99.90;;;;;;5046337;28;20382;-64
2022/05/22 10:02:58;;;;;;;;;;;28.20;99.90;;;;;;5044437;28;19913;-63
2022/05/22 10:05:27;;;;;;;;;;;28.40;99.90;;;;;;5051234;28;19916;-62
2022/05/22 10:08:01;;;;;;;;;;;28.60;99.90;;;;;;5046250;28;19947;-62
2022/05/22 10:10:44;;;;;;;;;;;28.70;99.90;;;;;;5055493;28;19913;-64
2022/05/22 10:13:18;;;;;;;;;;;28.80;99.90;;;;;;5050769;28;19965;-63
2022/05/22 10:15:53;;;;;;;;;;;28.90;99.90;;;;;;5054932;28;19967;-62
2022/05/22 10:18:25;;;;;;;;;;;28.90;99.90;;;;;;5051242;28;19982;-62
2022/05/22 10:21:03;;;;;;;;;;;28.90;99.90;;;;;;5034859;28;19948;-62
2022/05/22 10:23:38;;;;;;;;;;;29.00;99.90;;;;;;5048454;28;19966;-63
2022/05/22 10:26:06;;;;;;;;;;;29.10;99.90;;;;;;5054030;28;19952;-64
2022/05/22 10:28:40;;;;;;;;;;;29.20;99.90;;;;;;5061156;28;20282;-62
2022/05/22 10:31:16;;;;;;;;;;;29.30;99.90;;;;;;5050112;28;20271;-62
2022/05/22 10:33:44;;;;;;;;;;;29.20;99.90;;;;;;5053992;28;19913;-63
2022/05/22 10:36:14;;;;;;;;;;;29.10;99.90;;;;;;5054243;28;19909;-62
2022/05/22 10:38:55;;;;;;;;;;;29.20;99.90;;;;;;5050708;28;19927;-59
2022/05/22 10:44:27;;;;;;;;;;;29.20;99.90;;;;;;5053449;28;19970;-62
2022/05/22 10:46:54;;;;;;;;;;;29.00;99.90;;;;;;5053815;28;19909;-61
2022/05/22 10:49:23;;;;;;;;;;;29.10;99.90;;;;;;5051791;28;19909;-59
2022/05/22 10:52:00;;;;;;;;;;;28.80;99.90;;;;;;5041531;28;19940;-61
2022/05/22 10:54:29;;;;;;;;;;;28.40;99.90;;;;;;5042911;28;19913;-61
2022/05/22 10:57:05;;;;;;;;;;;28.20;99.90;;;;;;5053193;28;19909;-64
2022/05/22 10:59:31;;;;;;;;;;;28.30;99.90;;;;;;5052711;28;19917;-60
2022/05/22 11:01:58;;;;;;;;;;;28.60;99.90;;;;;;5040001;28;19912;-65
2022/05/22 11:04:33;;;;;;;;;;;28.70;99.90;;;;;;5053047;28;19921;-62
2022/05/22 11:07:00;;;;;;;;;;;28.80;99.90;;;;;;5054117;28;20370;-59
2022/05/22 11:09:26;;;;;;;;;;;28.80;99.90;;;;;;5050824;28;19939;-61
2022/05/22 11:12:03;;;;;;;;;;;28.90;99.90;;;;;;5049645;28;19917;-59
2022/05/22 11:14:32;;;;;;;;;;;29.10;99.90;;;;;;5048424;28;19959;-63
2022/05/22 11:17:07;;;;;;;;;;;29.40;99.90;;;;;;5048415;28;19928;-61
2022/05/22 11:19:34;;;;;;;;;;;29.20;99.90;;;;;;5046945;28;19932;-63
2022/05/22 11:22:18;;;;;;;;;;;29.20;99.90;;;;;;5049880;28;19945;-62
2022/05/22 11:25:02;;;;;;;;;;;29.10;99.90;;;;;;5051976;28;20063;-64
2022/05/22 11:27:45;;;;;;;;;;;29.10;99.90;;;;;;5049586;28;19999;-61
2022/05/22 11:30:46;;;;;;;;;;;29.10;99.90;;;;;;5052429;28;19999;-59
2022/05/22 11:33:24;;;;;;;;;;;29.10;99.90;;;;;;4974647;28;19913;-60
2022/05/22 11:35:50;;;;;;;;;;;28.80;99.90;;;;;;5041433;28;19999;-64
2022/05/22 11:38:21;;;;;;;;;;;28.40;99.90;;;;;;5050877;28;20063;-61
2022/05/22 11:40:47;;;;;;;;;;;28.40;99.90;;;;;;5054034;28;19921;-63
2022/05/22 11:43:15;;;;;;;;;;;28.30;99.90;;;;;;5052325;28;20011;-61
2022/05/22 11:45:49;;;;;;;;;;;28.30;99.90;;;;;;5052495;28;19919;-61
2022/05/22 11:48:14;;;;;;;;;;;28.40;99.90;;;;;;5058563;28;19923;-60
2022/05/22 11:50:47;;;;;;;;;;;28.40;99.90;;;;;;5051020;28;20009;-62
2022/05/22 11:53:25;;;;;;;;;;;28.40;99.90;;;;;;5051365;28;20010;-60
2022/05/22 11:56:11;;;;;;;;;;;28.40;99.90;;;;;;5052168;28;20355;-62
2022/05/22 11:58:55;;;;;;;;;;;28.40;99.90;;;;;;5050339;28;19923;-61
2022/05/22 12:01:31;;;;;;;;;;;27.90;99.90;;;;;;5050591;28;20003;-61
2022/05/22 12:04:15;;;;;;;;;;;27.20;99.90;;;;;;5033345;28;19963;-62
2022/05/22 12:06:59;;;;;;;;;;;26.70;99.90;;;;;;5051039;28;20023;-64
2022/05/22 12:09:43;;;;;;;;;;;26.50;99.90;;;;;;5047974;28;19917;-59
2022/05/22 12:12:15;;;;;;;;;;;26.20;99.90;;;;;;5040376;28;20067;-64
2022/05/22 12:15:00;;;;;;;;;;;26.20;99.90;;;;;;5046865;28;19917;-63
2022/05/22 12:17:31;;;;;;;;;;;26.30;99.90;;;;;;5041121;28;20280;-56
2022/05/22 12:20:19;;;;;;;;;;;26.40;99.90;;;;;;5041085;28;20318;-61
2022/05/22 12:23:08;;;;;;;;;;;26.50;99.90;;;;;;5047368;28;19920;-64
2022/05/22 12:25:36;;;;;;;;;;;26.40;99.90;;;;;;5046543;28;19960;-62
2022/05/22 12:28:03;;;;;;;;;;;26.20;99.90;;;;;;5047611;28;19920;-60
2022/05/22 12:30:37;;;;;;;;;;;26.20;99.90;;;;;;5050398;28;19913;-66
2022/05/22 12:33:09;;;;;;;;;;;26.00;99.90;;;;;;5049196;28;20327;-69
2022/05/22 12:35:36;;;;;;;;;;;25.70;99.90;;;;;;5049589;28;19917;-69
2022/05/22 12:38:04;;;;;;;;;;;25.60;99.90;;;;;;5047714;28;20316;-69
2022/05/22 12:40:29;;;;;;;;;;;25.60;99.90;;;;;;5051391;28;19912;-69
2022/05/22 12:42:58;;;;;;;;;;;25.70;99.90;;;;;;5052014;28;20444;-70
2022/05/22 12:45:25;;;;;;;;;;;25.90;99.90;;;;;;5050319;28;19916;-69
2022/05/22 12:47:52;;;;;;;;;;;26.10;99.90;;;;;;5047979;28;19920;-70
2022/05/22 12:50:43;;;;;;;;;;;26.20;99.90;;;;;;5058774;28;19909;-71
2022/05/22 12:53:24;;;;;;;;;;;26.50;99.90;;;;;;5020956;28;19912;-71
2022/05/22 12:55:50;;;;;;;;;;;26.70;99.90;;;;;;5047613;28;19912;-68
2022/05/22 12:58:31;;;;;;;;;;;26.80;99.90;;;;;;5026621;28;19979;-69
2022/05/22 13:00:57;;;;;;;;;;;26.80;99.90;;;;;;5041272;28;19966;-68
2022/05/22 13:03:23;;;;;;;;;;;26.60;99.90;;;;;;5050003;28;19913;-69
2022/05/22 13:06:05;;;;;;;;;;;26.60;99.90;;;;;;5050415;28;20336;-68
2022/05/22 13:08:47;;;;;;;;;;;26.50;99.90;;;;;;5048745;28;19963;-70
2022/05/22 13:11:17;;;;;;;;;;;26.60;99.90;;;;;;5047329;28;19983;-70
2022/05/22 13:13:50;;;;;;;;;;;26.60;99.90;;;;;;5027036;28;20436;-69
2022/05/22 13:16:27;;;;;;;;;;;26.80;99.90;;;;;;5031792;28;19913;-69
2022/05/22 13:18:53;;;;;;;;;;;26.90;99.90;;;;;;5054001;28;19916;-69
2022/05/22 13:21:35;;;;;;;;;;;27.00;99.90;;;;;;5044930;28;19913;-69
2022/05/22 13:24:21;;;;;;;;;;;27.00;99.90;;;;;;5053258;28;20454;-69
2022/05/22 13:27:03;;;;;;;;;;;27.10;99.90;;;;;;5045756;28;20100;-69
2022/05/22 13:29:40;;;;;;;;;;;27.10;99.90;;;;;;5042192;28;20059;-71
2022/05/22 13:32:11;;;;;;;;;;;26.80;99.90;;;;;;5046883;28;19919;-69
2022/05/22 13:34:38;;;;;;;;;;;26.70;99.90;;;;;;5047258;28;19927;-68
2022/05/22 13:37:05;;;;;;;;;;;26.50;99.90;;;;;;5048605;28;19917;-70
2022/05/22 13:39:33;;;;;;;;;;;26.30;99.90;;;;;;5050551;28;19916;-69
2022/05/22 13:42:01;;;;;;;;;;;26.40;99.90;;;;;;5047379;28;19925;-69
2022/05/22 13:44:42;;;;;;;;;;;26.40;99.90;;;;;;5045260;28;20417;-71
2022/05/22 13:47:26;;;;;;;;;;;26.40;99.90;;;;;;5043531;28;19924;-69
2022/05/22 13:49:52;;;;;;;;;;;26.20;99.90;;;;;;5045410;28;19948;-70
2022/05/22 13:52:50;;;;;;;;;;;26.00;99.90;;;;;;5047917;28;19959;-70
2022/05/22 13:55:19;;;;;;;;;;;25.70;99.90;;;;;;5025020;28;20417;-70
2022/05/22 13:57:51;;;;;;;;;;;25.60;99.90;;;;;;5046349;28;20266;-72
2022/05/22 14:00:20;;;;;;;;;;;25.80;99.90;;;;;;5050581;28;20000;-70
2022/05/22 14:02:53;;;;;;;;;;;25.60;99.90;;;;;;5051101;28;19943;-69
2022/05/22 14:05:19;;;;;;;;;;;25.40;99.90;;;;;;5050725;28;20003;-70
2022/05/22 14:07:49;;;;;;;;;;;25.30;99.90;;;;;;5053198;28;19935;-70
2022/05/22 14:10:17;;;;;;;;;;;25.30;99.90;;;;;;5048423;28;19917;-72
2022/05/22 14:12:44;;;;;;;;;;;25.40;99.90;;;;;;5050266;28;20420;-69
2022/05/22 14:15:10;;;;;;;;;;;25.50;99.90;;;;;;5058762;28;19909;-70
2022/05/22 14:17:37;;;;;;;;;;;25.60;99.90;;;;;;5055283;28;19913;-70
2022/05/22 14:20:04;;;;;;;;;;;25.30;99.90;;;;;;5029033;28;20566;-69
2022/05/22 14:22:29;;;;;;;;;;;25.30;99.90;;;;;;5059041;28;19987;-70
2022/05/22 14:24:58;;;;;;;;;;;25.20;99.90;;;;;;5061596;28;20322;-70
2022/05/22 14:27:29;;;;;;;;;;;25.20;99.90;;;;;;5070442;28;19991;-68
2022/05/22 14:30:13;;;;;;;;;;;25.00;99.90;;;;;;5052050;28;19913;-69
2022/05/22 14:32:39;;;;;;;;;;;25.30;99.90;;;;;;5032357;28;19909;-71
2022/05/22 14:35:06;;;;;;;;;;;25.10;99.90;;;;;;5049535;28;19916;-70
2022/05/22 14:37:40;;;;;;;;;;;25.00;99.90;;;;;;5058105;28;20294;-69
2022/05/22 14:40:13;;;;;;;;;;;25.10;99.90;;;;;;5061225;28;19966;-70
2022/05/22 14:42:40;;;;;;;;;;;25.00;99.90;;;;;;5062459;28;19937;-69